Terminal Aerodrome Forecast
Issued by NWS

Home | Current Version | Previous Version | Text Only | Print | Product List | Glossary On
Versions: 1 2 3 4 5 6 7 8 9 10 11 12 13 14
000
FTUS45 KABQ 071138
TAFTCC
TAF
KTCC 071138Z 0712/0812 04010KT P6SM FEW020 BKN035
      TEMPO 0712/0716 3SM BR OVC012
     FM071600 07011KT P6SM BKN035
      TEMPO 0716/0720 OVC025
     FM072100 09008KT P6SM SCT040 BKN070
     FM080400 12007KT P6SM BKN030=

USA.gov is the U.S. government's official web portal to all federal, state and local government web resources and services.